createdAt,value
2022-12-31T00:00:16.263Z,79.85
2022-12-31T00:02:43.230Z,79.25
2022-12-31T00:05:10.633Z,79.35
2022-12-31T00:10:05.302Z,80.53
2022-12-31T00:12:32.416Z,79.87
2022-12-31T00:14:59.204Z,79.66
2022-12-31T00:17:26.129Z,76.31
2022-12-31T00:19:52.960Z,75.74
2022-12-31T00:22:19.741Z,73.47
2022-12-31T00:24:46.559Z,71.79
2022-12-31T00:27:13.364Z,70.61
2022-12-31T00:29:40.354Z,70.65
2022-12-31T00:32:07.151Z,70.34
2022-12-31T00:34:34.022Z,70.58
2022-12-31T00:37:00.791Z,70.34
2022-12-31T00:39:27.653Z,70.37
2022-12-31T00:41:54.420Z,70.80
2022-12-31T00:44:21.255Z,69.89
2022-12-31T00:46:48.329Z,70.68
2022-12-31T00:49:15.538Z,70.36
2022-12-31T00:51:42.653Z,70.46
2022-12-31T00:54:10.118Z,70.75
2022-12-31T00:56:36.918Z,70.66
2022-12-31T00:59:04.565Z,70.31
2022-12-31T01:01:38.491Z,70.13
2022-12-31T01:04:10.986Z,69.76
2022-12-31T01:06:38.758Z,69.79
2022-12-31T01:09:06.748Z,69.32
2022-12-31T01:11:33.809Z,68.45
2022-12-31T01:14:05.718Z,68.73
2022-12-31T01:16:34.007Z,69.30
2022-12-31T01:19:04.274Z,67.40
2022-12-31T01:21:32.208Z,67.26
2022-12-31T01:23:59.991Z,66.78
2022-12-31T01:26:27.766Z,66.99
2022-12-31T01:28:54.583Z,66.83
2022-12-31T01:31:23.059Z,67.24
2022-12-31T01:33:51.202Z,67.00
2022-12-31T01:36:25.879Z,66.65
2022-12-31T01:39:11.564Z,66.50
2022-12-31T01:41:44.484Z,66.21
2022-12-31T01:44:11.194Z,66.38
2022-12-31T01:46:48.482Z,66.39
2022-12-31T01:49:40.151Z,65.76
2022-12-31T01:52:31.459Z,66.21
2022-12-31T01:55:14.472Z,65.50
2022-12-31T01:57:43.722Z,65.01
2022-12-31T02:00:11.386Z,65.12
2022-12-31T02:02:38.285Z,65.78
2022-12-31T02:05:17.021Z,65.36
2022-12-31T02:07:44.525Z,64.40
2022-12-31T02:10:11.664Z,64.73
2022-12-31T02:12:39.159Z,65.46
2022-12-31T02:15:06.728Z,64.89
2022-12-31T02:17:51.477Z,65.01
2022-12-31T02:21:05.989Z,64.51
2022-12-31T02:23:57.304Z,63.86
2022-12-31T02:26:42.355Z,64.31
2022-12-31T02:29:43.065Z,64.37
2022-12-31T02:32:41.370Z,64.12
2022-12-31T02:35:45.596Z,64.22
2022-12-31T02:38:19.737Z,64.07
2022-12-31T02:40:47.600Z,63.66
2022-12-31T02:43:14.600Z,63.00
2022-12-31T02:45:47.913Z,63.65
2022-12-31T02:48:49.594Z,63.07
2022-12-31T02:51:28.208Z,63.35
2022-12-31T02:54:36.916Z,62.99
2022-12-31T02:57:17.012Z,63.17
2022-12-31T03:00:23.682Z,63.22
2022-12-31T03:02:52.836Z,63.04
2022-12-31T03:05:24.184Z,63.63
2022-12-31T03:07:51.316Z,62.63
2022-12-31T03:10:18.272Z,62.59
2022-12-31T03:12:48.510Z,62.49
2022-12-31T03:15:22.281Z,62.80
2022-12-31T03:17:58.160Z,62.41
2022-12-31T03:21:02.985Z,62.44
2022-12-31T03:23:42.746Z,63.10
2022-12-31T03:26:12.126Z,62.66
2022-12-31T03:28:42.485Z,62.66
2022-12-31T03:31:09.880Z,62.44
2022-12-31T03:33:40.444Z,63.00
2022-12-31T03:36:14.225Z,62.69
2022-12-31T03:38:41.845Z,63.08
2022-12-31T03:41:11.195Z,62.68
2022-12-31T03:43:38.419Z,63.64
2022-12-31T03:46:05.484Z,63.34
2022-12-31T03:48:32.349Z,63.38
2022-12-31T03:50:59.166Z,63.19
2022-12-31T03:53:26.127Z,64.02
2022-12-31T03:55:54.014Z,64.33
2022-12-31T03:58:21.935Z,63.50
2022-12-31T04:00:49.378Z,63.75
2022-12-31T04:03:16.372Z,63.81
2022-12-31T04:05:43.319Z,63.42
2022-12-31T04:08:10.121Z,63.70
2022-12-31T04:10:36.975Z,63.97
2022-12-31T04:13:04.799Z,63.58
2022-12-31T04:15:32.234Z,63.48
2022-12-31T04:17:59.082Z,63.56
2022-12-31T04:20:26.035Z,62.82
2022-12-31T04:22:52.898Z,62.42
2022-12-31T04:25:19.861Z,62.29
2022-12-31T04:27:46.664Z,62.25
2022-12-31T04:30:14.252Z,62.36
2022-12-31T04:32:41.700Z,62.86
2022-12-31T04:35:09.940Z,61.70
2022-12-31T04:37:36.737Z,62.12
2022-12-31T04:40:06.545Z,61.29
2022-12-31T04:42:35.025Z,61.58
2022-12-31T04:45:01.955Z,60.73
2022-12-31T04:47:28.749Z,60.92
2022-12-31T04:49:55.625Z,60.52
2022-12-31T04:52:22.699Z,60.36
2022-12-31T04:54:49.540Z,60.59
2022-12-31T04:57:16.389Z,60.69
2022-12-31T04:59:43.288Z,60.44
2022-12-31T05:02:10.270Z,60.33
2022-12-31T05:04:37.265Z,61.14
2022-12-31T05:07:04.142Z,60.49
2022-12-31T05:09:31.088Z,60.82
2022-12-31T05:11:58.236Z,60.42
2022-12-31T05:14:25.390Z,61.08
2022-12-31T05:16:52.636Z,60.68
2022-12-31T05:19:19.640Z,60.42
2022-12-31T05:22:06.435Z,59.93
2022-12-31T05:24:33.287Z,60.39
2022-12-31T05:27:00.232Z,60.35
2022-12-31T05:29:27.056Z,59.67
2022-12-31T05:31:53.856Z,58.66
2022-12-31T05:34:20.799Z,59.01
2022-12-31T05:36:47.595Z,59.57
2022-12-31T05:39:14.448Z,59.43
2022-12-31T05:41:41.272Z,58.81
2022-12-31T05:44:08.106Z,59.14
2022-12-31T05:46:34.963Z,59.30
2022-12-31T05:49:01.796Z,59.32
2022-12-31T05:51:28.663Z,58.81
2022-12-31T05:53:55.491Z,59.39
2022-12-31T05:56:22.401Z,58.99
2022-12-31T05:58:49.235Z,59.13
2022-12-31T06:01:16.162Z,59.23
2022-12-31T06:03:43.074Z,59.31
2022-12-31T06:06:09.934Z,58.94
2022-12-31T06:08:36.774Z,58.50
2022-12-31T06:11:03.736Z,59.15
2022-12-31T06:13:30.661Z,59.17
2022-12-31T06:15:57.605Z,59.48
2022-12-31T06:18:24.493Z,58.99
2022-12-31T06:20:51.378Z,58.83
2022-12-31T06:23:18.229Z,58.25
2022-12-31T06:25:47.503Z,58.75
2022-12-31T06:28:20.091Z,58.42
2022-12-31T06:30:47.957Z,58.59
2022-12-31T06:33:14.772Z,58.57
2022-12-31T06:35:41.595Z,58.42
2022-12-31T06:38:08.376Z,58.54
2022-12-31T06:40:37.787Z,59.28
2022-12-31T06:43:05.684Z,58.97
2022-12-31T06:45:32.510Z,59.62
2022-12-31T06:47:59.323Z,59.30
2022-12-31T06:50:26.146Z,59.36
2022-12-31T06:52:52.991Z,59.60
2022-12-31T06:55:20.476Z,59.26
2022-12-31T06:57:47.689Z,59.73
2022-12-31T07:00:15.533Z,59.16
2022-12-31T07:03:21.210Z,59.02
2022-12-31T07:06:11.531Z,59.29
2022-12-31T07:08:54.149Z,59.32
2022-12-31T07:11:23.553Z,59.92
2022-12-31T07:14:05.340Z,59.06
2022-12-31T07:16:56.623Z,59.46
2022-12-31T07:19:32.346Z,58.88
2022-12-31T07:21:59.976Z,58.92
2022-12-31T07:24:27.515Z,59.36
2022-12-31T07:27:49.580Z,59.40
2022-12-31T07:30:21.973Z,59.75
2022-12-31T07:33:22.733Z,59.64
2022-12-31T07:36:52.717Z,59.88
2022-12-31T07:39:40.994Z,59.97
2022-12-31T07:42:18.658Z,60.14
2022-12-31T07:45:06.732Z,61.13
2022-12-31T07:47:33.870Z,61.89
2022-12-31T07:50:01.353Z,62.29
2022-12-31T07:52:28.545Z,62.30
2022-12-31T07:54:55.379Z,62.41
2022-12-31T07:57:27.696Z,62.61
2022-12-31T08:00:14.539Z,63.11
2022-12-31T08:02:59.750Z,62.86
2022-12-31T08:05:41.104Z,62.91
2022-12-31T08:08:47.393Z,62.67
2022-12-31T08:11:27.214Z,62.79
2022-12-31T08:13:56.869Z,62.63
2022-12-31T08:16:24.257Z,63.78
2022-12-31T08:18:51.497Z,63.77
2022-12-31T08:21:43.428Z,63.44
2022-12-31T08:24:29.937Z,63.95
2022-12-31T08:27:20.965Z,64.46
2022-12-31T08:30:11.031Z,64.01
2022-12-31T08:32:43.756Z,64.15
2022-12-31T08:35:32.793Z,63.82
2022-12-31T08:38:34.099Z,62.77
2022-12-31T08:41:47.184Z,62.05
2022-12-31T08:44:53.242Z,61.58
2022-12-31T08:47:52.703Z,60.33
2022-12-31T08:50:22.343Z,56.65
2022-12-31T08:52:49.547Z,51.49
2022-12-31T08:55:18.837Z,48.27
2022-12-31T08:58:20.807Z,46.33
2022-12-31T09:00:53.393Z,44.53
2022-12-31T09:03:58.827Z,43.93
2022-12-31T09:06:35.977Z,44.33
2022-12-31T09:09:33.945Z,46.51
2022-12-31T09:12:38.462Z,49.96
2022-12-31T09:15:41.921Z,53.63
2022-12-31T09:18:12.022Z,53.42
2022-12-31T09:20:44.126Z,54.60
2022-12-31T09:23:13.187Z,55.25
2022-12-31T09:26:18.880Z,55.35
2022-12-31T09:29:35.609Z,56.28
2022-12-31T09:32:28.581Z,55.65
2022-12-31T09:35:07.405Z,55.40
2022-12-31T09:37:41.489Z,56.06
2022-12-31T09:40:51.388Z,56.26
2022-12-31T09:44:01.465Z,56.09
2022-12-31T09:47:01.148Z,55.39
2022-12-31T09:50:21.004Z,55.03
2022-12-31T09:53:16.219Z,55.54
2022-12-31T09:56:05.818Z,55.72
2022-12-31T09:58:45.315Z,55.08
2022-12-31T10:01:30.745Z,54.48
2022-12-31T10:04:35.374Z,53.64
2022-12-31T10:07:04.722Z,53.16
2022-12-31T10:10:05.433Z,53.11
2022-12-31T10:13:10.007Z,53.57
2022-12-31T10:15:58.236Z,54.90
2022-12-31T10:19:04.195Z,55.31
2022-12-31T10:22:05.522Z,55.76
2022-12-31T10:24:54.103Z,55.59
2022-12-31T10:27:49.730Z,55.74
2022-12-31T10:30:20.897Z,56.61
2022-12-31T10:33:20.018Z,56.86
2022-12-31T10:35:56.235Z,56.73
2022-12-31T10:39:10.757Z,57.36
2022-12-31T10:42:11.783Z,59.89
2022-12-31T10:45:04.503Z,61.12
2022-12-31T10:47:37.003Z,61.43
2022-12-31T10:50:31.813Z,63.05
2022-12-31T10:53:30.227Z,64.14
2022-12-31T10:56:30.235Z,64.39
2022-12-31T10:59:49.447Z,62.97
2022-12-31T11:02:40.448Z,62.20
2022-12-31T11:05:59.433Z,62.43
2022-12-31T11:08:49.920Z,61.90
2022-12-31T11:11:28.693Z,61.44
2022-12-31T11:14:25.089Z,61.59
2022-12-31T11:17:24.566Z,61.62
2022-12-31T11:20:10.642Z,61.38
2022-12-31T11:22:56.875Z,62.37
2022-12-31T11:25:51.752Z,61.50
2022-12-31T11:29:14.097Z,62.11
2022-12-31T11:32:01.940Z,61.77
2022-12-31T11:34:37.498Z,60.94
2022-12-31T11:37:35.169Z,59.81
2022-12-31T11:40:35.111Z,59.14
2022-12-31T11:43:19.975Z,58.04
2022-12-31T11:46:38.720Z,56.26
2022-12-31T11:49:34.537Z,55.69
2022-12-31T11:52:38.149Z,53.37
2022-12-31T11:55:19.666Z,53.08
2022-12-31T11:57:59.536Z,53.70
2022-12-31T12:00:28.131Z,53.53
2022-12-31T12:03:06.522Z,53.99
2022-12-31T12:05:35.178Z,52.39
2022-12-31T12:08:02.915Z,54.51
2022-12-31T12:10:36.739Z,52.64
2022-12-31T12:13:26.682Z,46.94
2022-12-31T12:15:58.287Z,45.11
2022-12-31T12:18:40.757Z,43.43
2022-12-31T12:21:17.063Z,40.07
2022-12-31T12:24:04.150Z,39.86
2022-12-31T12:26:45.295Z,39.55
2022-12-31T12:29:15.073Z,40.21
2022-12-31T12:31:42.623Z,38.46
2022-12-31T12:34:29.113Z,38.30
2022-12-31T12:36:56.118Z,37.91
2022-12-31T12:39:32.641Z,37.82
2022-12-31T12:42:16.076Z,38.55
2022-12-31T12:44:43.028Z,37.84
2022-12-31T12:47:16.280Z,36.50
2022-12-31T12:49:48.477Z,36.21
2022-12-31T12:52:45.425Z,36.11
2022-12-31T12:55:37.127Z,35.76
2022-12-31T12:58:37.291Z,36.17
2022-12-31T13:01:16.720Z,35.35
2022-12-31T13:04:37.926Z,36.38
2022-12-31T13:07:23.025Z,35.84
2022-12-31T13:10:33.547Z,38.15
2022-12-31T13:13:26.037Z,39.43
2022-12-31T13:16:32.149Z,38.00
2022-12-31T13:19:51.298Z,35.85
2022-12-31T13:22:40.699Z,34.62
2022-12-31T13:25:34.445Z,33.42
2022-12-31T13:28:06.478Z,34.47
2022-12-31T13:30:46.900Z,34.66
2022-12-31T13:33:37.763Z,35.82
2022-12-31T13:36:17.213Z,36.13
2022-12-31T13:38:49.407Z,35.72
2022-12-31T13:41:33.192Z,35.18
2022-12-31T13:44:16.922Z,36.06
2022-12-31T13:46:59.277Z,38.16
2022-12-31T13:49:36.969Z,38.22
2022-12-31T13:52:25.032Z,39.03
2022-12-31T13:54:59.971Z,39.14
2022-12-31T13:57:55.529Z,40.74
2022-12-31T14:00:32.309Z,41.04
2022-12-31T14:03:17.869Z,43.01
2022-12-31T14:06:24.849Z,44.67
2022-12-31T14:08:53.407Z,45.65
2022-12-31T14:11:35.170Z,45.56
2022-12-31T14:14:30.188Z,47.31
2022-12-31T14:18:01.780Z,48.14
2022-12-31T14:20:57.001Z,49.99
2022-12-31T14:23:42.331Z,51.04
2022-12-31T14:26:41.756Z,52.04
2022-12-31T14:29:11.604Z,52.50
2022-12-31T14:31:51.825Z,53.22
2022-12-31T14:34:41.942Z,54.20
2022-12-31T14:37:15.015Z,54.40
2022-12-31T14:40:06.364Z,55.40
2022-12-31T14:43:07.478Z,57.34
2022-12-31T14:46:10.862Z,58.49
2022-12-31T14:49:05.545Z,59.11
2022-12-31T14:51:35.814Z,59.92
2022-12-31T14:54:02.637Z,59.53
2022-12-31T14:56:32.901Z,61.97
2022-12-31T14:59:02.273Z,60.45
2022-12-31T15:01:29.698Z,60.50
2022-12-31T15:03:58.384Z,60.97
2022-12-31T15:06:55.877Z,61.38
2022-12-31T15:09:28.355Z,61.70
2022-12-31T15:12:16.820Z,62.89
2022-12-31T15:14:56.411Z,62.76
2022-12-31T15:17:49.903Z,63.13
2022-12-31T15:20:33.498Z,64.34
2022-12-31T15:23:00.474Z,64.28
2022-12-31T15:25:27.232Z,65.65
2022-12-31T15:27:57.065Z,65.29
2022-12-31T15:30:44.425Z,67.23
2022-12-31T15:33:29.587Z,66.01
2022-12-31T15:35:57.975Z,66.09
2022-12-31T15:38:39.706Z,66.36
2022-12-31T15:41:28.126Z,66.35
2022-12-31T15:44:19.852Z,67.15
2022-12-31T15:47:00.835Z,67.55
2022-12-31T15:49:37.423Z,67.70
2022-12-31T15:52:13.587Z,68.16
2022-12-31T15:54:45.283Z,67.33
2022-12-31T15:57:25.972Z,68.01
2022-12-31T15:59:59.873Z,68.66
2022-12-31T16:02:28.347Z,68.75
2022-12-31T16:04:56.154Z,69.18
2022-12-31T16:07:24.509Z,68.68
2022-12-31T16:09:57.874Z,68.58
2022-12-31T16:12:33.228Z,68.89
2022-12-31T16:15:01.817Z,68.86
2022-12-31T16:17:33.739Z,68.38
2022-12-31T16:20:19.469Z,68.58
2022-12-31T16:22:54.778Z,69.09
2022-12-31T16:25:31.503Z,69.46
2022-12-31T16:27:59.524Z,69.79
2022-12-31T16:30:33.012Z,69.82
2022-12-31T16:33:04.111Z,70.68
2022-12-31T16:35:36.347Z,70.14
2022-12-31T16:38:19.342Z,71.21
2022-12-31T16:41:01.353Z,70.29
2022-12-31T16:43:43.257Z,70.96
2022-12-31T16:46:27.621Z,70.69
2022-12-31T16:48:59.686Z,71.61
2022-12-31T16:51:31.370Z,71.75
2022-12-31T16:53:59.483Z,71.87
2022-12-31T16:56:36.675Z,71.31
2022-12-31T16:59:24.209Z,71.06
2022-12-31T17:01:52.051Z,70.46
2022-12-31T17:04:20.244Z,70.48
2022-12-31T17:06:48.313Z,70.88
2022-12-31T17:09:21.013Z,70.76
2022-12-31T17:11:53.432Z,70.57
2022-12-31T17:14:27.547Z,70.66
2022-12-31T17:17:07.471Z,70.46
2022-12-31T17:19:45.238Z,70.06
2022-12-31T17:22:32.820Z,69.91
2022-12-31T17:25:25.340Z,70.84
2022-12-31T17:28:01.612Z,70.86
2022-12-31T17:30:28.345Z,70.29
2022-12-31T17:33:26.668Z,70.42
2022-12-31T17:36:22.172Z,70.88
2022-12-31T17:38:49.699Z,69.52
2022-12-31T17:41:26.502Z,69.74
2022-12-31T17:43:57.651Z,69.00
2022-12-31T17:46:25.922Z,69.63
2022-12-31T17:49:03.035Z,69.07
2022-12-31T17:51:29.859Z,69.40
2022-12-31T17:53:59.918Z,69.51
2022-12-31T17:56:26.788Z,69.63
2022-12-31T17:58:54.587Z,70.14
2022-12-31T18:01:23.406Z,70.31
2022-12-31T18:03:50.907Z,69.83
2022-12-31T18:06:19.469Z,69.68
2022-12-31T18:08:46.828Z,69.38
2022-12-31T18:11:24.297Z,68.97
2022-12-31T18:13:53.236Z,68.36
2022-12-31T18:16:20.197Z,68.61
2022-12-31T18:18:47.034Z,67.66
2022-12-31T18:21:27.212Z,67.90
2022-12-31T18:26:24.266Z,67.33
2022-12-31T18:28:51.995Z,66.41
2022-12-31T18:31:30.312Z,65.58
2022-12-31T18:33:59.192Z,64.97
2022-12-31T18:36:28.954Z,65.35
2022-12-31T18:38:55.814Z,65.84
2022-12-31T18:41:27.829Z,64.43
2022-12-31T18:43:55.547Z,64.58
2022-12-31T18:46:24.777Z,64.11
2022-12-31T18:48:51.687Z,64.11
2022-12-31T18:51:31.257Z,63.79
2022-12-31T18:54:00.381Z,63.50
2022-12-31T18:56:27.606Z,65.02
2022-12-31T18:58:54.528Z,64.70
2022-12-31T19:01:37.540Z,64.67
2022-12-31T19:04:26.645Z,64.06
2022-12-31T19:06:54.403Z,64.34
2022-12-31T19:09:44.636Z,64.30
2022-12-31T19:12:14.293Z,65.30
2022-12-31T19:14:41.166Z,66.13
2022-12-31T19:19:34.826Z,65.68
2022-12-31T19:22:02.580Z,65.50
2022-12-31T19:24:29.569Z,65.62
2022-12-31T19:26:56.497Z,65.79
2022-12-31T19:29:26.067Z,65.86
2022-12-31T19:31:53.025Z,66.13
2022-12-31T19:34:20.135Z,66.21
2022-12-31T19:36:47.155Z,66.28
2022-12-31T19:39:18.288Z,66.42
2022-12-31T19:41:50.101Z,66.27
2022-12-31T19:44:21.549Z,66.97
2022-12-31T19:46:49.292Z,66.93
2022-12-31T19:49:16.499Z,67.15
2022-12-31T19:51:43.394Z,67.20
2022-12-31T19:54:13.563Z,67.20
2022-12-31T19:56:40.847Z,67.77
2022-12-31T19:59:10.477Z,67.47
2022-12-31T20:01:38.172Z,67.51
2022-12-31T20:04:05.374Z,67.82
2022-12-31T20:06:32.287Z,68.21
2022-12-31T20:08:59.233Z,68.20
2022-12-31T20:11:26.195Z,68.50
2022-12-31T20:13:54.133Z,68.30
2022-12-31T20:16:24.411Z,69.49
2022-12-31T20:18:51.569Z,70.08
2022-12-31T20:21:22.407Z,70.10
2022-12-31T20:23:51.003Z,70.08
2022-12-31T20:26:19.206Z,70.13
2022-12-31T20:28:46.637Z,69.93
2022-12-31T20:31:17.332Z,69.84
2022-12-31T20:33:44.763Z,69.27
2022-12-31T20:36:14.822Z,69.41
2022-12-31T20:38:42.142Z,69.10
2022-12-31T20:41:13.370Z,69.62
2022-12-31T20:43:40.474Z,69.68
2022-12-31T20:46:15.299Z,70.29
2022-12-31T20:48:43.891Z,70.62
2022-12-31T20:51:11.144Z,70.60
2022-12-31T20:53:38.264Z,70.58
2022-12-31T20:56:09.693Z,70.91
2022-12-31T20:58:36.871Z,70.40
2022-12-31T21:01:07.929Z,71.20
2022-12-31T21:06:29.089Z,71.88
2022-12-31T21:08:59.065Z,71.59
2022-12-31T21:11:45.569Z,71.90
2022-12-31T21:14:12.433Z,72.33
2022-12-31T21:16:39.405Z,72.57
2022-12-31T21:19:06.539Z,72.26
2022-12-31T21:21:33.904Z,72.03
2022-12-31T21:24:00.740Z,71.90
2022-12-31T21:26:29.524Z,72.15
2022-12-31T21:28:56.367Z,72.17
2022-12-31T21:31:23.355Z,72.81
2022-12-31T21:33:51.255Z,72.54
2022-12-31T21:36:18.185Z,72.77
2022-12-31T21:38:45.016Z,72.89
2022-12-31T21:41:33.484Z,73.30
2022-12-31T21:44:01.845Z,73.83
2022-12-31T21:46:29.334Z,73.77
2022-12-31T21:48:58.985Z,73.66
2022-12-31T21:51:26.460Z,73.16
2022-12-31T21:53:53.566Z,72.42
2022-12-31T21:56:21.686Z,72.68
2022-12-31T21:59:16.076Z,72.50
2022-12-31T22:02:02.007Z,72.23
2022-12-31T22:05:01.296Z,72.73
2022-12-31T22:07:16.149Z,72.73
2022-12-31T22:09:42.965Z,73.33
2022-12-31T22:12:09.855Z,73.48
2022-12-31T22:14:36.723Z,73.10
2022-12-31T22:17:03.739Z,72.98
2022-12-31T22:19:30.558Z,73.01
2022-12-31T22:21:57.409Z,73.10
2022-12-31T22:24:24.249Z,72.86
2022-12-31T22:26:52.115Z,73.15
2022-12-31T22:29:19.713Z,72.92
2022-12-31T22:31:46.605Z,72.75
2022-12-31T22:34:13.412Z,72.79
2022-12-31T22:36:40.551Z,73.29
2022-12-31T22:39:07.463Z,73.38
2022-12-31T22:41:34.843Z,73.84
2022-12-31T22:44:04.558Z,73.78
2022-12-31T22:46:33.122Z,73.43
2022-12-31T22:49:01.641Z,73.79
2022-12-31T22:51:57.359Z,74.22
2022-12-31T22:54:17.451Z,74.31
2022-12-31T22:56:44.445Z,74.28
2022-12-31T22:59:11.347Z,74.11
2022-12-31T23:01:38.184Z,74.32
2022-12-31T23:04:05.643Z,74.33
2022-12-31T23:06:32.577Z,73.79
2022-12-31T23:09:17.709Z,73.70
2022-12-31T23:11:44.579Z,73.81
2022-12-31T23:14:35.710Z,73.09
2022-12-31T23:17:30.039Z,73.09
2022-12-31T23:20:18.261Z,72.61
2022-12-31T23:23:07.150Z,71.61
2022-12-31T23:25:48.808Z,72.02
2022-12-31T23:28:19.701Z,72.36
2022-12-31T23:30:46.720Z,71.90
2022-12-31T23:33:17.864Z,71.89
2022-12-31T23:35:45.005Z,71.81
2022-12-31T23:38:12.169Z,71.86
2022-12-31T23:40:39.172Z,72.42
2022-12-31T23:43:08.607Z,72.58
2022-12-31T23:45:36.377Z,72.03
2022-12-31T23:48:03.485Z,72.04
2022-12-31T23:50:30.280Z,71.16
2022-12-31T23:52:57.134Z,70.88
2022-12-31T23:55:23.949Z,70.32
2022-12-31T23:57:50.811Z,71.20
